createdAt,value
2023-04-14T00:00:37.142Z,100.00
2023-04-14T00:03:04.486Z,100.00
2023-04-14T00:05:32.366Z,100.00
2023-04-14T00:07:59.454Z,100.00
2023-04-14T00:10:26.929Z,100.00
2023-04-14T00:12:55.565Z,100.00
2023-04-14T00:15:22.311Z,100.00
2023-04-14T00:17:49.079Z,100.00
2023-04-14T00:20:16.118Z,100.00
2023-04-14T00:22:42.911Z,100.00
2023-04-14T00:25:09.868Z,100.00
2023-04-14T00:27:36.517Z,100.00
2023-04-14T00:30:03.568Z,100.00
2023-04-14T00:32:30.407Z,100.00
2023-04-14T00:34:57.197Z,100.00
2023-04-14T00:37:24.375Z,100.00
2023-04-14T00:39:50.924Z,100.00
2023-04-14T00:42:17.552Z,100.00
2023-04-14T00:44:44.498Z,100.00
2023-04-14T00:47:11.561Z,100.00
2023-04-14T00:49:38.454Z,100.00
2023-04-14T00:52:05.953Z,100.00
2023-04-14T00:54:34.534Z,100.00
2023-04-14T00:57:02.937Z,100.00
2023-04-14T00:59:30.075Z,100.00
2023-04-14T01:01:57.057Z,100.00
2023-04-14T01:04:24.817Z,100.00
2023-04-14T01:06:54.593Z,100.00
2023-04-14T01:09:21.516Z,100.00
2023-04-14T01:12:16.503Z,100.00
2023-04-14T01:14:55.593Z,100.00
2023-04-14T01:17:39.505Z,100.00
2023-04-14T01:20:17.128Z,100.00
2023-04-14T01:22:49.303Z,100.00
2023-04-14T01:25:34.224Z,100.00
2023-04-14T01:28:29.980Z,100.00
2023-04-14T01:31:15.023Z,100.00
2023-04-14T01:33:44.121Z,100.00
2023-04-14T01:36:13.988Z,100.00
2023-04-14T01:38:42.843Z,100.00
2023-04-14T01:41:12.349Z,100.00
2023-04-14T01:43:42.491Z,100.00
2023-04-14T01:46:13.907Z,100.00
2023-04-14T01:48:44.736Z,100.00
2023-04-14T01:51:13.838Z,100.00
2023-04-14T01:53:43.890Z,100.00
2023-04-14T01:56:12.976Z,100.00
2023-04-14T01:58:42.246Z,100.00
2023-04-14T02:01:09.351Z,100.00
2023-04-14T02:03:37.243Z,100.00
2023-04-14T02:06:05.478Z,100.00
2023-04-14T02:08:33.100Z,100.00
2023-04-14T02:11:02.427Z,100.00
2023-04-14T02:13:30.682Z,100.00
2023-04-14T02:15:59.332Z,100.00
2023-04-14T02:18:28.371Z,100.00
2023-04-14T02:20:57.854Z,100.00
2023-04-14T02:23:24.519Z,100.00
2023-04-14T02:26:13.792Z,100.00
2023-04-14T02:29:00.050Z,100.00
2023-04-14T02:31:30.319Z,100.00
2023-04-14T02:34:00.920Z,100.00
2023-04-14T02:36:43.526Z,100.00
2023-04-14T02:39:15.113Z,100.00
2023-04-14T02:41:44.849Z,100.00
2023-04-14T02:44:21.694Z,100.00
2023-04-14T02:47:03.849Z,100.00
2023-04-14T02:49:40.274Z,100.00
2023-04-14T02:52:09.772Z,100.00
2023-04-14T02:54:40.004Z,100.00
2023-04-14T02:57:07.334Z,100.00
2023-04-14T02:59:34.817Z,100.00
2023-04-14T03:02:05.048Z,100.00
2023-04-14T03:04:34.710Z,100.00
2023-04-14T03:07:03.269Z,100.00
2023-04-14T03:09:30.833Z,100.00
2023-04-14T03:11:58.778Z,100.00
2023-04-14T03:14:27.270Z,100.00
2023-04-14T03:16:54.893Z,100.00
2023-04-14T03:19:23.332Z,100.00
2023-04-14T03:21:51.252Z,100.00
2023-04-14T03:24:24.855Z,100.00
2023-04-14T03:26:57.432Z,100.00
2023-04-14T03:29:31.571Z,100.00
2023-04-14T03:32:01.473Z,100.00
2023-04-14T03:34:31.497Z,100.00
2023-04-14T03:36:59.718Z,100.00
2023-04-14T03:39:29.004Z,100.00
2023-04-14T03:41:57.343Z,100.00
2023-04-14T03:44:26.525Z,100.00
2023-04-14T03:46:54.997Z,100.00
2023-04-14T03:49:24.391Z,100.00
2023-04-14T03:51:53.517Z,100.00
2023-04-14T03:54:23.832Z,100.00
2023-04-14T03:56:52.313Z,100.00
2023-04-14T03:59:22.067Z,100.00
2023-04-14T04:01:49.954Z,100.00
2023-04-14T04:04:18.073Z,100.00
2023-04-14T04:06:45.011Z,100.00
2023-04-14T04:09:15.930Z,100.00
2023-04-14T04:11:44.214Z,100.00
2023-04-14T04:14:13.170Z,100.00
2023-04-14T04:16:43.042Z,100.00
2023-04-14T04:19:14.053Z,100.00
2023-04-14T04:21:43.520Z,100.00
2023-04-14T04:24:12.588Z,100.00
2023-04-14T04:26:39.612Z,100.00
2023-04-14T04:29:07.162Z,100.00
2023-04-14T04:31:34.672Z,100.00
2023-04-14T04:34:03.640Z,100.00
2023-04-14T04:36:31.847Z,100.00
2023-04-14T04:38:59.020Z,100.00
2023-04-14T04:41:28.830Z,100.00
2023-04-14T04:43:56.647Z,100.00
2023-04-14T04:46:55.694Z,100.00
2023-04-14T04:49:22.769Z,100.00
2023-04-14T04:51:49.769Z,100.00
2023-04-14T04:54:16.511Z,100.00
2023-04-14T04:56:43.212Z,100.00
2023-04-14T04:59:10.930Z,100.00
2023-04-14T05:01:37.837Z,100.00
2023-04-14T05:04:04.435Z,100.00
2023-04-14T05:06:34.580Z,100.00
2023-04-14T05:09:01.771Z,100.00
2023-04-14T05:11:28.649Z,100.00
2023-04-14T05:13:55.567Z,100.00
2023-04-14T05:16:22.306Z,100.00
2023-04-14T05:18:49.200Z,100.00
2023-04-14T05:21:16.228Z,100.00
2023-04-14T05:23:44.306Z,100.00
2023-04-14T05:26:39.077Z,100.00
2023-04-14T05:29:01.986Z,100.00
2023-04-14T05:31:28.781Z,100.00
2023-04-14T05:33:55.443Z,100.00
2023-04-14T05:36:22.045Z,100.00
2023-04-14T05:38:48.714Z,100.00
2023-04-14T05:41:15.714Z,100.00
2023-04-14T05:43:42.377Z,100.00
2023-04-14T05:46:08.958Z,100.00
2023-04-14T05:48:37.778Z,100.00
2023-04-14T05:51:04.866Z,100.00
2023-04-14T05:53:31.546Z,100.00
2023-04-14T05:55:58.225Z,100.00
2023-04-14T05:58:26.882Z,100.00
2023-04-14T06:00:53.709Z,100.00
2023-04-14T06:03:20.582Z,100.00
2023-04-14T06:05:48.335Z,100.00
2023-04-14T06:08:15.077Z,100.00
2023-04-14T06:10:41.806Z,100.00
2023-04-14T06:13:08.961Z,100.00
2023-04-14T06:15:35.802Z,100.00
2023-04-14T06:18:02.476Z,100.00
2023-04-14T06:20:32.021Z,100.00
2023-04-14T06:23:01.041Z,100.00
2023-04-14T06:25:27.844Z,100.00
2023-04-14T06:27:54.686Z,100.00
2023-04-14T06:30:21.301Z,100.00
2023-04-14T06:32:51.684Z,100.00
2023-04-14T06:35:32.031Z,100.00
2023-04-14T06:38:00.133Z,100.00
2023-04-14T06:40:27.431Z,100.00
2023-04-14T06:42:54.276Z,100.00
2023-04-14T06:45:21.204Z,100.00
2023-04-14T06:47:48.102Z,100.00
2023-04-14T06:50:14.815Z,100.00
2023-04-14T06:52:41.974Z,100.00
2023-04-14T06:55:09.156Z,100.00
2023-04-14T06:57:35.835Z,100.00
2023-04-14T07:00:04.653Z,100.00
2023-04-14T07:02:31.352Z,100.00
2023-04-14T07:04:58.097Z,100.00
2023-04-14T07:07:24.836Z,100.00
2023-04-14T07:09:52.126Z,100.00
2023-04-14T07:12:18.931Z,100.00
2023-04-14T07:14:52.168Z,100.00
2023-04-14T07:17:20.110Z,100.00
2023-04-14T07:19:47.125Z,100.00
2023-04-14T07:22:13.785Z,100.00
2023-04-14T07:24:40.939Z,100.00
2023-04-14T07:27:07.616Z,100.00
2023-04-14T07:29:35.370Z,100.00
2023-04-14T07:32:02.474Z,99.60
2023-04-14T07:34:29.230Z,97.06
2023-04-14T07:36:55.914Z,97.74
2023-04-14T07:39:23.851Z,97.02
2023-04-14T07:41:50.743Z,97.61
2023-04-14T07:44:17.453Z,97.99
2023-04-14T07:46:44.247Z,100.00
2023-04-14T07:49:11.070Z,100.00
2023-04-14T07:51:38.272Z,100.00
2023-04-14T07:54:06.341Z,100.00
2023-04-14T07:56:33.254Z,100.00
2023-04-14T07:59:00.261Z,100.00
2023-04-14T08:01:27.246Z,100.00
2023-04-14T08:03:54.286Z,100.00
2023-04-14T08:06:21.429Z,100.00
2023-04-14T08:08:48.167Z,100.00
2023-04-14T08:11:14.797Z,100.00
2023-04-14T08:13:42.813Z,100.00
2023-04-14T08:16:09.579Z,100.00
2023-04-14T08:18:37.232Z,100.00
2023-04-14T08:21:04.081Z,99.32
2023-04-14T08:23:30.922Z,99.63
2023-04-14T08:25:57.687Z,98.52
2023-04-14T08:28:24.810Z,99.34
2023-04-14T08:30:51.488Z,99.02
2023-04-14T08:33:18.127Z,99.05
2023-04-14T08:35:44.813Z,98.33
2023-04-14T08:38:11.766Z,96.78
2023-04-14T08:40:43.703Z,96.09
2023-04-14T08:43:13.138Z,97.97
2023-04-14T08:45:42.394Z,100.00
2023-04-14T08:48:12.184Z,100.00
2023-04-14T08:50:49.588Z,100.00
2023-04-14T08:53:18.222Z,100.00
2023-04-14T08:55:45.702Z,100.00
2023-04-14T08:58:12.709Z,100.00
2023-04-14T09:00:40.518Z,100.00
2023-04-14T09:03:09.460Z,100.00
2023-04-14T09:05:36.614Z,100.00
2023-04-14T09:08:04.633Z,100.00
2023-04-14T09:10:32.220Z,100.00
2023-04-14T09:12:58.959Z,100.00
2023-04-14T09:15:29.293Z,100.00
2023-04-14T09:17:56.718Z,100.00
2023-04-14T09:20:38.635Z,100.00
2023-04-14T09:23:12.555Z,100.00
2023-04-14T09:25:40.927Z,100.00
2023-04-14T09:28:08.408Z,100.00
2023-04-14T09:30:35.083Z,100.00
2023-04-14T09:33:08.395Z,100.00
2023-04-14T09:35:46.829Z,100.00
2023-04-14T09:38:13.443Z,100.00
2023-04-14T09:40:43.239Z,100.00
2023-04-14T09:43:22.416Z,100.00
2023-04-14T09:45:49.270Z,100.00
2023-04-14T09:48:16.397Z,100.00
2023-04-14T09:51:03.620Z,100.00
2023-04-14T09:53:35.878Z,100.00
2023-04-14T09:56:06.128Z,100.00
2023-04-14T09:58:34.649Z,96.49
2023-04-14T10:01:05.123Z,94.25
2023-04-14T10:03:40.296Z,94.93
2023-04-14T10:06:16.513Z,96.19
2023-04-14T10:08:51.737Z,92.98
2023-04-14T10:11:21.307Z,91.33
2023-04-14T10:13:49.831Z,93.06
2023-04-14T10:16:17.632Z,92.81
2023-04-14T10:18:44.422Z,91.57
2023-04-14T10:21:11.787Z,91.72
2023-04-14T10:23:39.828Z,90.86
2023-04-14T10:26:10.712Z,91.06
2023-04-14T10:28:43.954Z,86.12
2023-04-14T10:31:39.448Z,86.63
2023-04-14T10:34:14.066Z,87.25
2023-04-14T10:36:41.602Z,85.40
2023-04-14T10:39:10.219Z,84.67
2023-04-14T10:41:42.915Z,83.64
2023-04-14T10:44:24.968Z,85.02
2023-04-14T10:46:52.454Z,85.78
2023-04-14T10:49:19.162Z,85.31
2023-04-14T10:51:49.764Z,85.63
2023-04-14T10:54:19.506Z,85.92
2023-04-14T10:57:12.788Z,82.48
2023-04-14T10:59:43.646Z,81.43
2023-04-14T11:02:28.654Z,80.18
2023-04-14T11:05:13.583Z,79.52
2023-04-14T11:07:49.321Z,80.76
2023-04-14T11:10:24.947Z,78.24
2023-04-14T11:12:56.568Z,79.08
2023-04-14T11:15:23.716Z,77.48
2023-04-14T11:17:51.788Z,77.76
2023-04-14T11:20:25.230Z,78.43
2023-04-14T11:22:54.336Z,77.04
2023-04-14T11:25:27.541Z,78.43
2023-04-14T11:27:54.264Z,78.09
2023-04-14T11:30:21.978Z,77.04
2023-04-14T11:32:57.493Z,74.75
2023-04-14T11:35:26.207Z,77.77
2023-04-14T11:37:57.844Z,76.35
2023-04-14T11:40:26.766Z,75.94
2023-04-14T11:42:55.873Z,75.58
2023-04-14T11:45:23.621Z,75.66
2023-04-14T11:48:04.017Z,73.58
2023-04-14T11:50:33.326Z,72.06
2023-04-14T11:53:00.799Z,69.70
2023-04-14T11:55:28.004Z,69.23
2023-04-14T11:57:55.986Z,69.13
2023-04-14T12:00:23.010Z,68.12
2023-04-14T12:02:50.821Z,68.14
2023-04-14T12:05:25.495Z,68.62
2023-04-14T12:08:00.009Z,70.66
2023-04-14T12:10:27.854Z,71.07
2023-04-14T12:13:08.797Z,70.26
2023-04-14T12:15:38.137Z,68.76
2023-04-14T12:18:09.923Z,70.60
2023-04-14T12:20:47.136Z,74.39
2023-04-14T12:23:15.634Z,80.55
2023-04-14T12:25:42.231Z,92.56
2023-04-14T12:28:09.186Z,99.59
2023-04-14T12:30:37.421Z,100.00
2023-04-14T12:33:14.199Z,100.00
2023-04-14T12:35:41.015Z,100.00
2023-04-14T12:38:14.768Z,100.00
2023-04-14T12:40:44.862Z,100.00
2023-04-14T12:43:16.896Z,100.00
2023-04-14T12:45:48.330Z,100.00
2023-04-14T12:48:18.603Z,100.00
2023-04-14T12:50:45.601Z,100.00
2023-04-14T12:53:26.342Z,100.00
2023-04-14T12:56:24.118Z,100.00
2023-04-14T12:58:51.724Z,100.00
2023-04-14T13:01:21.076Z,100.00
2023-04-14T13:03:56.167Z,100.00
2023-04-14T13:06:24.804Z,100.00
2023-04-14T13:08:55.353Z,100.00
2023-04-14T13:11:23.752Z,100.00
2023-04-14T13:13:52.618Z,100.00
2023-04-14T13:16:20.459Z,100.00
2023-04-14T13:18:49.094Z,100.00
2023-04-14T13:21:16.026Z,100.00
2023-04-14T13:23:45.842Z,100.00
2023-04-14T13:26:15.898Z,100.00
2023-04-14T13:28:42.818Z,99.94
2023-04-14T13:31:11.653Z,99.69
2023-04-14T13:33:38.488Z,100.00
2023-04-14T13:36:05.476Z,100.00
2023-04-14T13:38:32.264Z,100.00
2023-04-14T13:41:02.638Z,98.46
2023-04-14T13:43:30.162Z,97.69
2023-04-14T13:45:58.819Z,96.42
2023-04-14T13:48:26.494Z,96.76
2023-04-14T13:50:54.598Z,95.10
2023-04-14T13:53:21.448Z,94.24
2023-04-14T13:55:48.125Z,95.69
2023-04-14T13:58:15.082Z,90.89
2023-04-14T14:00:42.346Z,88.57
2023-04-14T14:03:09.650Z,89.68
2023-04-14T14:05:36.521Z,89.77
2023-04-14T14:08:03.638Z,89.98
2023-04-14T14:10:30.765Z,90.15
2023-04-14T14:12:57.567Z,92.12
2023-04-14T14:15:24.310Z,88.32
2023-04-14T14:17:53.266Z,88.04
2023-04-14T14:20:20.424Z,89.50
2023-04-14T14:22:47.443Z,88.96
2023-04-14T14:25:20.542Z,88.60
2023-04-14T14:27:48.703Z,87.99
2023-04-14T14:30:16.069Z,87.33
2023-04-14T14:32:42.705Z,88.03
2023-04-14T14:35:09.776Z,87.26
2023-04-14T14:37:36.788Z,89.55
2023-04-14T14:40:04.181Z,89.37
2023-04-14T14:42:31.429Z,91.46
2023-04-14T14:44:58.052Z,88.43
2023-04-14T14:47:25.182Z,91.29
2023-04-14T14:49:59.686Z,91.87
2023-04-14T14:52:31.549Z,89.95
2023-04-14T14:54:58.395Z,92.23
2023-04-14T14:57:25.930Z,92.32
2023-04-14T14:59:53.059Z,90.66
2023-04-14T15:02:22.198Z,92.27
2023-04-14T15:04:49.926Z,91.14
2023-04-14T15:07:16.956Z,93.67
2023-04-14T15:09:46.252Z,91.91
2023-04-14T15:12:13.034Z,92.16
2023-04-14T15:14:39.719Z,89.01
2023-04-14T15:17:06.391Z,89.70
2023-04-14T15:19:33.137Z,89.92
2023-04-14T15:22:01.491Z,89.93
2023-04-14T15:24:28.257Z,91.29
2023-04-14T15:26:54.966Z,90.72
2023-04-14T15:29:25.165Z,92.29
2023-04-14T15:31:52.007Z,90.67
2023-04-14T15:34:18.689Z,92.95
2023-04-14T15:36:45.569Z,93.16
2023-04-14T15:39:12.427Z,94.42
2023-04-14T15:41:39.022Z,94.94
2023-04-14T15:44:05.974Z,98.18
2023-04-14T15:46:32.898Z,99.92
2023-04-14T15:48:59.679Z,100.00
2023-04-14T15:51:26.353Z,100.00
2023-04-14T15:53:53.195Z,100.00
2023-04-14T15:56:23.482Z,100.00
2023-04-14T15:58:50.855Z,100.00
2023-04-14T16:01:17.850Z,100.00
2023-04-14T16:03:44.788Z,100.00
2023-04-14T16:06:11.589Z,100.00
2023-04-14T16:08:38.342Z,100.00
2023-04-14T16:11:05.225Z,100.00
2023-04-14T16:13:31.989Z,100.00
2023-04-14T16:15:58.839Z,100.00
2023-04-14T16:18:25.535Z,100.00
2023-04-14T16:20:52.293Z,100.00
2023-04-14T16:23:19.050Z,100.00
2023-04-14T16:25:51.828Z,100.00
2023-04-14T16:28:18.862Z,99.06
2023-04-14T16:30:46.001Z,100.00
2023-04-14T16:33:13.358Z,100.00
2023-04-14T16:35:40.377Z,100.00
2023-04-14T16:38:08.856Z,100.00
2023-04-14T16:40:54.375Z,100.00
2023-04-14T16:43:21.204Z,100.00
2023-04-14T16:45:47.931Z,100.00
2023-04-14T16:48:14.693Z,100.00
2023-04-14T16:50:42.805Z,100.00
2023-04-14T16:53:09.625Z,100.00
2023-04-14T16:55:36.265Z,100.00
2023-04-14T16:58:03.417Z,100.00
2023-04-14T17:00:30.789Z,100.00
2023-04-14T17:02:57.959Z,100.00
2023-04-14T17:05:24.709Z,100.00
2023-04-14T17:07:51.632Z,100.00
2023-04-14T17:10:18.453Z,100.00
2023-04-14T17:12:46.753Z,100.00
2023-04-14T17:15:13.723Z,100.00
2023-04-14T17:17:40.443Z,100.00
2023-04-14T17:20:07.992Z,100.00
2023-04-14T17:22:34.946Z,100.00
2023-04-14T17:25:04.917Z,100.00
2023-04-14T17:27:32.081Z,100.00
2023-04-14T17:29:59.242Z,100.00
2023-04-14T17:32:26.644Z,100.00
2023-04-14T17:34:53.589Z,100.00
2023-04-14T17:37:20.586Z,100.00
2023-04-14T17:39:49.374Z,100.00
2023-04-14T17:42:16.097Z,100.00
2023-04-14T17:44:42.903Z,100.00
2023-04-14T17:47:15.741Z,100.00
2023-04-14T17:49:43.237Z,100.00
2023-04-14T17:52:11.142Z,100.00
2023-04-14T17:54:37.855Z,100.00
2023-04-14T17:57:04.741Z,100.00
2023-04-14T17:59:31.872Z,100.00
2023-04-14T18:01:58.848Z,100.00
2023-04-14T18:04:25.698Z,100.00
2023-04-14T18:06:53.162Z,100.00
2023-04-14T18:09:19.755Z,100.00
2023-04-14T18:11:46.553Z,100.00
2023-04-14T18:14:13.899Z,100.00
2023-04-14T18:16:40.960Z,100.00
2023-04-14T18:19:07.687Z,100.00
2023-04-14T18:21:34.653Z,100.00
2023-04-14T18:26:30.993Z,100.00
2023-04-14T18:28:57.919Z,100.00
2023-04-14T18:31:25.481Z,100.00
2023-04-14T18:33:52.099Z,100.00
2023-04-14T18:36:18.796Z,100.00
2023-04-14T18:38:45.710Z,100.00
2023-04-14T18:41:12.329Z,100.00
2023-04-14T18:43:39.643Z,100.00
2023-04-14T18:46:06.750Z,100.00
2023-04-14T18:48:33.567Z,100.00
2023-04-14T18:51:02.583Z,100.00
2023-04-14T18:53:29.393Z,100.00
2023-04-14T18:55:56.073Z,100.00
2023-04-14T18:58:23.103Z,100.00
2023-04-14T19:00:49.784Z,100.00
2023-04-14T19:03:17.266Z,100.00
2023-04-14T19:05:44.382Z,100.00
2023-04-14T19:08:11.056Z,100.00
2023-04-14T19:10:37.728Z,100.00
2023-04-14T19:13:04.532Z,100.00
2023-04-14T19:15:31.255Z,100.00
2023-04-14T19:17:57.850Z,100.00
2023-04-14T19:20:24.960Z,100.00
2023-04-14T19:22:51.657Z,100.00
2023-04-14T19:25:18.668Z,100.00
2023-04-14T19:27:45.381Z,100.00
2023-04-14T19:30:12.589Z,100.00
2023-04-14T19:32:39.906Z,100.00
2023-04-14T19:35:07.890Z,100.00
2023-04-14T19:37:35.188Z,100.00
2023-04-14T19:40:03.689Z,100.00
2023-04-14T19:42:30.434Z,100.00
2023-04-14T19:44:57.616Z,100.00
2023-04-14T19:47:24.442Z,100.00
2023-04-14T19:49:52.111Z,100.00
2023-04-14T19:52:22.410Z,100.00
2023-04-14T19:54:50.001Z,100.00
2023-04-14T19:57:16.973Z,100.00
2023-04-14T19:59:44.391Z,100.00
2023-04-14T20:02:13.513Z,100.00
2023-04-14T20:04:40.741Z,100.00
2023-04-14T20:07:07.783Z,100.00
2023-04-14T20:09:34.882Z,100.00
2023-04-14T20:12:02.548Z,100.00
2023-04-14T20:14:29.567Z,100.00
2023-04-14T20:16:56.979Z,100.00
2023-04-14T20:19:24.563Z,100.00
2023-04-14T20:21:51.397Z,100.00
2023-04-14T20:24:18.266Z,100.00
2023-04-14T20:26:45.172Z,100.00
2023-04-14T20:29:12.379Z,100.00
2023-04-14T20:31:39.834Z,100.00
2023-04-14T20:34:06.561Z,100.00
2023-04-14T20:36:36.053Z,100.00
2023-04-14T20:39:06.148Z,100.00
2023-04-14T20:41:33.907Z,100.00
2023-04-14T20:44:00.858Z,100.00
2023-04-14T20:46:28.137Z,100.00
2023-04-14T20:48:54.891Z,100.00
2023-04-14T20:51:21.584Z,100.00
2023-04-14T20:53:48.713Z,100.00
2023-04-14T20:56:15.294Z,100.00
2023-04-14T20:58:41.960Z,100.00
2023-04-14T21:01:09.390Z,100.00
2023-04-14T21:03:36.397Z,100.00
2023-04-14T21:06:03.228Z,100.00
2023-04-14T21:08:29.946Z,100.00
2023-04-14T21:11:15.040Z,100.00
2023-04-14T21:15:30.715Z,100.00
2023-04-14T21:16:30.632Z,100.00
2023-04-14T21:18:57.687Z,100.00
2023-04-14T21:21:24.448Z,100.00
2023-04-14T21:23:51.395Z,100.00
2023-04-14T21:26:19.323Z,100.00
2023-04-14T21:28:46.219Z,100.00
2023-04-14T21:31:13.010Z,100.00
2023-04-14T21:33:41.810Z,100.00
2023-04-14T21:36:09.880Z,100.00
2023-04-14T21:38:37.636Z,100.00
2023-04-14T21:41:04.481Z,100.00
2023-04-14T21:43:31.110Z,100.00
2023-04-14T21:45:57.949Z,100.00
2023-04-14T21:48:24.782Z,100.00
2023-04-14T21:50:51.399Z,100.00
2023-04-14T21:53:18.210Z,100.00
2023-04-14T21:55:44.917Z,100.00
2023-04-14T21:58:11.721Z,100.00
2023-04-14T22:00:38.348Z,100.00
2023-04-14T22:03:05.303Z,100.00
2023-04-14T22:05:32.272Z,100.00
2023-04-14T22:07:58.899Z,100.00
2023-04-14T22:10:32.328Z,100.00
2023-04-14T22:13:03.078Z,100.00
2023-04-14T22:15:29.669Z,100.00
2023-04-14T22:17:56.538Z,100.00
2023-04-14T22:20:23.974Z,100.00
2023-04-14T22:22:50.578Z,100.00
2023-04-14T22:25:17.279Z,100.00
2023-04-14T22:27:43.877Z,100.00
2023-04-14T22:30:11.919Z,100.00
2023-04-14T22:32:38.569Z,100.00
2023-04-14T22:35:05.545Z,100.00
2023-04-14T22:37:32.903Z,100.00
2023-04-14T22:40:02.468Z,100.00
2023-04-14T22:42:29.313Z,100.00
2023-04-14T22:44:55.880Z,100.00
2023-04-14T22:47:22.527Z,100.00
2023-04-14T22:49:49.196Z,100.00
2023-04-14T22:52:15.815Z,100.00
2023-04-14T22:54:42.346Z,100.00
2023-04-14T22:57:10.507Z,100.00
2023-04-14T22:59:38.011Z,100.00
2023-04-14T23:02:04.771Z,100.00
2023-04-14T23:04:31.564Z,100.00
2023-04-14T23:06:58.218Z,100.00
2023-04-14T23:09:25.004Z,100.00
2023-04-14T23:11:52.040Z,100.00
2023-04-14T23:14:18.601Z,100.00
2023-04-14T23:16:45.242Z,100.00
2023-04-14T23:19:12.016Z,100.00
2023-04-14T23:21:39.050Z,100.00
2023-04-14T23:24:06.827Z,100.00
2023-04-14T23:26:33.708Z,100.00
2023-04-14T23:29:01.094Z,100.00
2023-04-14T23:31:28.254Z,100.00
2023-04-14T23:33:55.076Z,100.00
2023-04-14T23:36:22.555Z,100.00
2023-04-14T23:38:49.586Z,100.00
2023-04-14T23:41:17.054Z,100.00
2023-04-14T23:43:44.061Z,100.00
2023-04-14T23:46:10.787Z,100.00
2023-04-14T23:48:37.970Z,100.00
2023-04-14T23:51:19.186Z,100.00
2023-04-14T23:53:47.359Z,100.00
2023-04-14T23:56:14.293Z,100.00
2023-04-14T23:58:41.205Z,100.00
